sensor_id;sensor_type;location;lat;lon;timestamp;temperature;humidity
77693;SHT31;66984;47.404;18.836;2023-07-28T00:00:03;17.94;65.82
77693;SHT31;66984;47.404;18.836;2023-07-28T00:01:07;17.96;66.10
77693;SHT31;66984;47.404;18.836;2023-07-28T00:02:10;17.95;66.34
77693;SHT31;66984;47.404;18.836;2023-07-28T00:03:13;17.98;66.35
77693;SHT31;66984;47.404;18.836;2023-07-28T00:04:16;18.02;66.25
77693;SHT31;66984;47.404;18.836;2023-07-28T00:05:19;18.04;66.25
77693;SHT31;66984;47.404;18.836;2023-07-28T00:06:22;18.05;66.20
77693;SHT31;66984;47.404;18.836;2023-07-28T00:07:25;18.06;65.93
77693;SHT31;66984;47.404;18.836;2023-07-28T00:08:28;18.09;65.99
77693;SHT31;66984;47.404;18.836;2023-07-28T00:09:31;18.10;66.20
77693;SHT31;66984;47.404;18.836;2023-07-28T00:10:39;18.04;66.51
77693;SHT31;66984;47.404;18.836;2023-07-28T00:11:42;18.04;66.25
77693;SHT31;66984;47.404;18.836;2023-07-28T00:12:45;18.05;66.38
77693;SHT31;66984;47.404;18.836;2023-07-28T00:13:48;18.04;66.14
77693;SHT31;66984;47.404;18.836;2023-07-28T00:14:51;17.99;65.52
77693;SHT31;66984;47.404;18.836;2023-07-28T00:15:54;17.99;65.55
77693;SHT31;66984;47.404;18.836;2023-07-28T00:16:57;18.01;65.68
77693;SHT31;66984;47.404;18.836;2023-07-28T00:18:00;17.99;65.50
77693;SHT31;66984;47.404;18.836;2023-07-28T00:19:04;17.99;65.24
77693;SHT31;66984;47.404;18.836;2023-07-28T00:20:07;18.01;65.21
77693;SHT31;66984;47.404;18.836;2023-07-28T00:21:10;18.06;65.33
77693;SHT31;66984;47.404;18.836;2023-07-28T00:22:13;18.05;65.65
77693;SHT31;66984;47.404;18.836;2023-07-28T00:23:16;18.06;65.52
77693;SHT31;66984;47.404;18.836;2023-07-28T00:24:19;18.06;65.41
77693;SHT31;66984;47.404;18.836;2023-07-28T00:25:22;18.06;65.32
77693;SHT31;66984;47.404;18.836;2023-07-28T00:26:25;18.09;65.24
77693;SHT31;66984;47.404;18.836;2023-07-28T00:27:28;18.13;65.16
77693;SHT31;66984;47.404;18.836;2023-07-28T00:28:30;18.17;65.93
77693;SHT31;66984;47.404;18.836;2023-07-28T00:29:33;18.22;65.91
77693;SHT31;66984;47.404;18.836;2023-07-28T00:30:36;18.16;66.22
77693;SHT31;66984;47.404;18.836;2023-07-28T00:31:39;18.13;66.15
77693;SHT31;66984;47.404;18.836;2023-07-28T00:32:42;18.16;66.17
77693;SHT31;66984;47.404;18.836;2023-07-28T00:33:45;18.21;66.09
77693;SHT31;66984;47.404;18.836;2023-07-28T00:34:48;18.25;65.87
77693;SHT31;66984;47.404;18.836;2023-07-28T00:35:51;18.26;65.58
77693;SHT31;66984;47.404;18.836;2023-07-28T00:36:54;18.32;65.34
77693;SHT31;66984;47.404;18.836;2023-07-28T00:37:57;18.32;65.16
77693;SHT31;66984;47.404;18.836;2023-07-28T00:39:00;18.33;65.35
77693;SHT31;66984;47.404;18.836;2023-07-28T00:40:03;18.33;65.16
77693;SHT31;66984;47.404;18.836;2023-07-28T00:41:06;18.32;65.14
77693;SHT31;66984;47.404;18.836;2023-07-28T00:42:09;18.34;65.21
77693;SHT31;66984;47.404;18.836;2023-07-28T00:43:12;18.34;65.32
77693;SHT31;66984;47.404;18.836;2023-07-28T00:44:15;18.34;65.38
77693;SHT31;66984;47.404;18.836;2023-07-28T00:45:20;18.36;65.27
77693;SHT31;66984;47.404;18.836;2023-07-28T00:46:24;18.39;65.36
77693;SHT31;66984;47.404;18.836;2023-07-28T00:47:27;18.39;65.23
77693;SHT31;66984;47.404;18.836;2023-07-28T00:48:30;18.44;65.53
77693;SHT31;66984;47.404;18.836;2023-07-28T00:49:34;18.47;65.97
77693;SHT31;66984;47.404;18.836;2023-07-28T00:50:37;18.52;66.14
77693;SHT31;66984;47.404;18.836;2023-07-28T00:51:41;18.43;66.42
77693;SHT31;66984;47.404;18.836;2023-07-28T00:52:44;18.37;65.84
77693;SHT31;66984;47.404;18.836;2023-07-28T00:53:48;18.34;65.93
77693;SHT31;66984;47.404;18.836;2023-07-28T00:54:51;18.34;66.14
77693;SHT31;66984;47.404;18.836;2023-07-28T00:55:55;18.37;66.94
77693;SHT31;66984;47.404;18.836;2023-07-28T00:56:59;18.40;66.75
77693;SHT31;66984;47.404;18.836;2023-07-28T00:58:02;18.28;66.85
77693;SHT31;66984;47.404;18.836;2023-07-28T00:59:05;18.25;66.87
77693;SHT31;66984;47.404;18.836;2023-07-28T01:00:09;18.26;67.07
77693;SHT31;66984;47.404;18.836;2023-07-28T01:01:13;18.29;66.90
77693;SHT31;66984;47.404;18.836;2023-07-28T01:02:15;18.28;66.65
77693;SHT31;66984;47.404;18.836;2023-07-28T01:03:20;18.22;66.93
77693;SHT31;66984;47.404;18.836;2023-07-28T01:04:23;18.23;66.77
77693;SHT31;66984;47.404;18.836;2023-07-28T01:05:33;18.23;66.62
77693;SHT31;66984;47.404;18.836;2023-07-28T01:06:52;18.17;66.98
77693;SHT31;66984;47.404;18.836;2023-07-28T01:08:06;18.25;66.68
77693;SHT31;66984;47.404;18.836;2023-07-28T01:09:16;18.21;66.70
77693;SHT31;66984;47.404;18.836;2023-07-28T01:10:24;18.26;66.67
77693;SHT31;66984;47.404;18.836;2023-07-28T01:11:29;18.29;66.99
77693;SHT31;66984;47.404;18.836;2023-07-28T01:12:32;18.30;66.83
77693;SHT31;66984;47.404;18.836;2023-07-28T01:13:35;18.33;66.72
77693;SHT31;66984;47.404;18.836;2023-07-28T01:14:38;18.34;66.64
77693;SHT31;66984;47.404;18.836;2023-07-28T01:15:41;18.37;66.55
77693;SHT31;66984;47.404;18.836;2023-07-28T01:16:44;18.40;66.37
77693;SHT31;66984;47.404;18.836;2023-07-28T01:17:46;18.39;66.90
77693;SHT31;66984;47.404;18.836;2023-07-28T01:18:50;18.43;66.80
77693;SHT31;66984;47.404;18.836;2023-07-28T01:19:53;18.44;66.65
77693;SHT31;66984;47.404;18.836;2023-07-28T01:21:01;18.46;66.92
77693;SHT31;66984;47.404;18.836;2023-07-28T01:24:04;18.47;66.52
77693;SHT31;66984;47.404;18.836;2023-07-28T01:25:35;18.50;66.36
77693;SHT31;66984;47.404;18.836;2023-07-28T01:26:39;18.53;66.17
77693;SHT31;66984;47.404;18.836;2023-07-28T01:27:43;18.56;65.90
77693;SHT31;66984;47.404;18.836;2023-07-28T01:28:46;18.53;66.04
77693;SHT31;66984;47.404;18.836;2023-07-28T01:29:50;18.53;65.94
77693;SHT31;66984;47.404;18.836;2023-07-28T01:30:53;18.53;66.18
77693;SHT31;66984;47.404;18.836;2023-07-28T01:31:59;18.56;66.30
77693;SHT31;66984;47.404;18.836;2023-07-28T01:33:06;18.47;66.45
77693;SHT31;66984;47.404;18.836;2023-07-28T01:34:09;18.44;66.06
77693;SHT31;66984;47.404;18.836;2023-07-28T01:35:12;18.43;65.93
77693;SHT31;66984;47.404;18.836;2023-07-28T01:36:15;18.43;66.01
77693;SHT31;66984;47.404;18.836;2023-07-28T01:37:18;18.47;65.57
77693;SHT31;66984;47.404;18.836;2023-07-28T01:38:21;18.53;65.58
77693;SHT31;66984;47.404;18.836;2023-07-28T01:39:24;18.46;65.74
77693;SHT31;66984;47.404;18.836;2023-07-28T01:40:29;18.44;65.16
77693;SHT31;66984;47.404;18.836;2023-07-28T01:41:33;18.47;65.01
77693;SHT31;66984;47.404;18.836;2023-07-28T01:42:35;18.46;64.87
77693;SHT31;66984;47.404;18.836;2023-07-28T01:43:38;18.49;64.90
77693;SHT31;66984;47.404;18.836;2023-07-28T01:44:41;18.46;64.86
77693;SHT31;66984;47.404;18.836;2023-07-28T01:45:44;18.47;64.79
77693;SHT31;66984;47.404;18.836;2023-07-28T01:46:47;18.52;64.74
77693;SHT31;66984;47.404;18.836;2023-07-28T01:47:50;18.53;64.88
77693;SHT31;66984;47.404;18.836;2023-07-28T01:48:53;18.54;64.98
77693;SHT31;66984;47.404;18.836;2023-07-28T01:49:56;18.53;65.10
77693;SHT31;66984;47.404;18.836;2023-07-28T01:50:59;18.52;65.03
77693;SHT31;66984;47.404;18.836;2023-07-28T01:52:02;18.56;64.73
77693;SHT31;66984;47.404;18.836;2023-07-28T01:53:06;18.54;64.46
77693;SHT31;66984;47.404;18.836;2023-07-28T01:54:09;18.60;64.23
77693;SHT31;66984;47.404;18.836;2023-07-28T01:55:12;18.59;64.27
77693;SHT31;66984;47.404;18.836;2023-07-28T01:56:14;18.60;64.17
77693;SHT31;66984;47.404;18.836;2023-07-28T01:57:17;18.64;63.93
77693;SHT31;66984;47.404;18.836;2023-07-28T01:58:20;18.65;63.86
77693;SHT31;66984;47.404;18.836;2023-07-28T01:59:23;18.68;63.68
77693;SHT31;66984;47.404;18.836;2023-07-28T02:00:26;18.65;63.64
77693;SHT31;66984;47.404;18.836;2023-07-28T02:01:29;18.65;63.91
77693;SHT31;66984;47.404;18.836;2023-07-28T02:02:32;18.65;63.87
77693;SHT31;66984;47.404;18.836;2023-07-28T02:03:35;18.64;63.93
77693;SHT31;66984;47.404;18.836;2023-07-28T02:04:38;18.64;63.99
77693;SHT31;66984;47.404;18.836;2023-07-28T02:05:41;18.63;64.19
77693;SHT31;66984;47.404;18.836;2023-07-28T02:06:44;18.67;64.00
77693;SHT31;66984;47.404;18.836;2023-07-28T02:07:47;18.65;63.71
77693;SHT31;66984;47.404;18.836;2023-07-28T02:08:50;18.65;63.60
77693;SHT31;66984;47.404;18.836;2023-07-28T02:09:52;18.67;63.70
77693;SHT31;66984;47.404;18.836;2023-07-28T02:10:55;18.67;63.64
77693;SHT31;66984;47.404;18.836;2023-07-28T02:11:58;18.67;63.59
77693;SHT31;66984;47.404;18.836;2023-07-28T02:13:01;18.67;63.69
77693;SHT31;66984;47.404;18.836;2023-07-28T02:14:04;18.67;63.68
77693;SHT31;66984;47.404;18.836;2023-07-28T02:15:07;18.70;63.60
77693;SHT31;66984;47.404;18.836;2023-07-28T02:16:10;18.68;63.60
77693;SHT31;66984;47.404;18.836;2023-07-28T02:17:13;18.70;63.81
77693;SHT31;66984;47.404;18.836;2023-07-28T02:18:16;18.64;64.01
77693;SHT31;66984;47.404;18.836;2023-07-28T02:19:20;18.64;64.12
77693;SHT31;66984;47.404;18.836;2023-07-28T02:20:23;18.59;63.71
77693;SHT31;66984;47.404;18.836;2023-07-28T02:21:26;18.57;63.86
77693;SHT31;66984;47.404;18.836;2023-07-28T02:22:32;18.60;63.58
77693;SHT31;66984;47.404;18.836;2023-07-28T02:23:35;18.64;63.49
77693;SHT31;66984;47.404;18.836;2023-07-28T02:24:37;18.60;63.64
77693;SHT31;66984;47.404;18.836;2023-07-28T02:25:40;18.59;63.74
77693;SHT31;66984;47.404;18.836;2023-07-28T02:26:43;18.59;64.19
77693;SHT31;66984;47.404;18.836;2023-07-28T02:27:46;18.56;64.18
77693;SHT31;66984;47.404;18.836;2023-07-28T02:28:49;18.54;63.65
77693;SHT31;66984;47.404;18.836;2023-07-28T02:29:52;18.54;63.52
77693;SHT31;66984;47.404;18.836;2023-07-28T02:30:55;18.56;63.58
77693;SHT31;66984;47.404;18.836;2023-07-28T02:31:58;18.54;63.63
77693;SHT31;66984;47.404;18.836;2023-07-28T02:33:01;18.59;63.56
77693;SHT31;66984;47.404;18.836;2023-07-28T02:34:03;18.54;63.61
77693;SHT31;66984;47.404;18.836;2023-07-28T02:35:07;18.53;63.55
77693;SHT31;66984;47.404;18.836;2023-07-28T02:36:10;18.57;63.53
77693;SHT31;66984;47.404;18.836;2023-07-28T02:37:14;18.54;63.60
77693;SHT31;66984;47.404;18.836;2023-07-28T02:38:17;18.57;63.66
77693;SHT31;66984;47.404;18.836;2023-07-28T02:39:20;18.60;63.61
77693;SHT31;66984;47.404;18.836;2023-07-28T02:40:24;18.61;63.63
77693;SHT31;66984;47.404;18.836;2023-07-28T02:41:27;18.60;63.69
77693;SHT31;66984;47.404;18.836;2023-07-28T02:42:29;18.65;63.77
77693;SHT31;66984;47.404;18.836;2023-07-28T02:43:33;18.67;63.67
77693;SHT31;66984;47.404;18.836;2023-07-28T02:44:36;18.68;63.65
77693;SHT31;66984;47.404;18.836;2023-07-28T02:45:38;18.70;63.56
77693;SHT31;66984;47.404;18.836;2023-07-28T02:46:41;18.70;63.82
77693;SHT31;66984;47.404;18.836;2023-07-28T02:47:44;18.68;63.79
77693;SHT31;66984;47.404;18.836;2023-07-28T02:48:47;18.68;63.85
77693;SHT31;66984;47.404;18.836;2023-07-28T02:49:50;18.67;63.63
77693;SHT31;66984;47.404;18.836;2023-07-28T02:50:53;18.67;63.58
77693;SHT31;66984;47.404;18.836;2023-07-28T02:51:56;18.68;63.65
77693;SHT31;66984;47.404;18.836;2023-07-28T02:52:59;18.73;63.50
77693;SHT31;66984;47.404;18.836;2023-07-28T02:54:02;18.73;63.37
77693;SHT31;66984;47.404;18.836;2023-07-28T02:55:06;18.74;62.99
77693;SHT31;66984;47.404;18.836;2023-07-28T02:56:09;18.68;63.06
77693;SHT31;66984;47.404;18.836;2023-07-28T02:57:12;18.67;63.08
77693;SHT31;66984;47.404;18.836;2023-07-28T02:58:15;18.70;63.12
77693;SHT31;66984;47.404;18.836;2023-07-28T02:59:18;18.68;63.19
77693;SHT31;66984;47.404;18.836;2023-07-28T03:00:21;18.70;63.25
77693;SHT31;66984;47.404;18.836;2023-07-28T03:01:24;18.71;63.17
77693;SHT31;66984;47.404;18.836;2023-07-28T03:02:27;18.71;63.27
77693;SHT31;66984;47.404;18.836;2023-07-28T03:03:30;18.70;63.51
77693;SHT31;66984;47.404;18.836;2023-07-28T03:04:33;18.71;63.53
77693;SHT31;66984;47.404;18.836;2023-07-28T03:05:37;18.65;63.26
77693;SHT31;66984;47.404;18.836;2023-07-28T03:06:40;18.64;63.17
77693;SHT31;66984;47.404;18.836;2023-07-28T03:07:43;18.68;63.21
77693;SHT31;66984;47.404;18.836;2023-07-28T03:08:45;18.68;63.11
77693;SHT31;66984;47.404;18.836;2023-07-28T03:09:48;18.68;63.13
77693;SHT31;66984;47.404;18.836;2023-07-28T03:10:56;18.70;63.16
77693;SHT31;66984;47.404;18.836;2023-07-28T03:11:59;18.71;63.16
77693;SHT31;66984;47.404;18.836;2023-07-28T03:13:02;18.74;63.19
77693;SHT31;66984;47.404;18.836;2023-07-28T03:14:05;18.74;63.11
77693;SHT31;66984;47.404;18.836;2023-07-28T03:15:08;18.70;63.63
77693;SHT31;66984;47.404;18.836;2023-07-28T03:16:11;18.73;63.63
77693;SHT31;66984;47.404;18.836;2023-07-28T03:17:14;18.74;63.27
77693;SHT31;66984;47.404;18.836;2023-07-28T03:18:17;18.71;63.20
77693;SHT31;66984;47.404;18.836;2023-07-28T03:19:20;18.75;63.11
77693;SHT31;66984;47.404;18.836;2023-07-28T03:20:23;18.74;63.10
77693;SHT31;66984;47.404;18.836;2023-07-28T03:21:30;18.71;63.06
77693;SHT31;66984;47.404;18.836;2023-07-28T03:22:33;18.73;63.09
77693;SHT31;66984;47.404;18.836;2023-07-28T03:23:36;18.73;63.14
77693;SHT31;66984;47.404;18.836;2023-07-28T03:24:39;18.71;62.89
77693;SHT31;66984;47.404;18.836;2023-07-28T03:25:42;18.71;62.83
77693;SHT31;66984;47.404;18.836;2023-07-28T03:26:45;18.71;62.79
77693;SHT31;66984;47.404;18.836;2023-07-28T03:27:48;18.65;62.87
77693;SHT31;66984;47.404;18.836;2023-07-28T03:28:51;18.68;62.89
77693;SHT31;66984;47.404;18.836;2023-07-28T03:29:54;18.64;62.95
77693;SHT31;66984;47.404;18.836;2023-07-28T03:30:57;18.65;62.94
77693;SHT31;66984;47.404;18.836;2023-07-28T03:32:00;18.64;62.93
77693;SHT31;66984;47.404;18.836;2023-07-28T03:33:04;18.64;62.82
77693;SHT31;66984;47.404;18.836;2023-07-28T03:34:07;18.63;62.86
77693;SHT31;66984;47.404;18.836;2023-07-28T03:35:11;18.63;63.37
77693;SHT31;66984;47.404;18.836;2023-07-28T03:36:15;18.61;62.90
77693;SHT31;66984;47.404;18.836;2023-07-28T03:37:18;18.60;62.87
77693;SHT31;66984;47.404;18.836;2023-07-28T03:38:21;18.59;62.77
77693;SHT31;66984;47.404;18.836;2023-07-28T03:39:24;18.61;62.76
77693;SHT31;66984;47.404;18.836;2023-07-28T03:40:27;18.63;62.77
77693;SHT31;66984;47.404;18.836;2023-07-28T03:41:30;18.61;62.71
77693;SHT31;66984;47.404;18.836;2023-07-28T03:42:33;18.65;62.65
77693;SHT31;66984;47.404;18.836;2023-07-28T03:43:36;18.64;62.94
77693;SHT31;66984;47.404;18.836;2023-07-28T03:44:39;18.63;62.81
77693;SHT31;66984;47.404;18.836;2023-07-28T03:45:44;18.71;62.65
77693;SHT31;66984;47.404;18.836;2023-07-28T03:46:47;18.68;62.55
77693;SHT31;66984;47.404;18.836;2023-07-28T03:47:50;18.67;62.53
77693;SHT31;66984;47.404;18.836;2023-07-28T03:48:53;18.67;62.81
77693;SHT31;66984;47.404;18.836;2023-07-28T03:49:56;18.64;62.79
77693;SHT31;66984;47.404;18.836;2023-07-28T03:50:59;18.67;62.73
77693;SHT31;66984;47.404;18.836;2023-07-28T03:52:01;18.65;62.79
77693;SHT31;66984;47.404;18.836;2023-07-28T03:53:04;18.63;62.90
77693;SHT31;66984;47.404;18.836;2023-07-28T03:54:07;18.64;63.16
77693;SHT31;66984;47.404;18.836;2023-07-28T03:55:10;18.65;63.26
77693;SHT31;66984;47.404;18.836;2023-07-28T03:56:13;18.63;63.22
77693;SHT31;66984;47.404;18.836;2023-07-28T03:57:16;18.70;63.29
77693;SHT31;66984;47.404;18.836;2023-07-28T03:58:19;18.67;63.49
77693;SHT31;66984;47.404;18.836;2023-07-28T03:59:22;18.70;63.22
77693;SHT31;66984;47.404;18.836;2023-07-28T04:00:25;18.67;63.39
77693;SHT31;66984;47.404;18.836;2023-07-28T04:01:28;18.68;63.43
77693;SHT31;66984;47.404;18.836;2023-07-28T04:02:31;18.68;63.31
77693;SHT31;66984;47.404;18.836;2023-07-28T04:03:34;18.74;63.12
77693;SHT31;66984;47.404;18.836;2023-07-28T04:04:37;18.75;62.99
77693;SHT31;66984;47.404;18.836;2023-07-28T04:05:40;18.75;62.97
77693;SHT31;66984;47.404;18.836;2023-07-28T04:06:45;18.77;62.92
77693;SHT31;66984;47.404;18.836;2023-07-28T04:07:48;18.81;62.93
77693;SHT31;66984;47.404;18.836;2023-07-28T04:08:51;18.80;63.54
77693;SHT31;66984;47.404;18.836;2023-07-28T04:09:54;18.78;63.38
77693;SHT31;66984;47.404;18.836;2023-07-28T04:10:57;18.81;63.08
77693;SHT31;66984;47.404;18.836;2023-07-28T04:12:00;18.84;63.04
77693;SHT31;66984;47.404;18.836;2023-07-28T04:13:03;18.85;63.31
77693;SHT31;66984;47.404;18.836;2023-07-28T04:14:06;18.85;63.17
77693;SHT31;66984;47.404;18.836;2023-07-28T04:15:09;18.85;63.09
77693;SHT31;66984;47.404;18.836;2023-07-28T04:16:12;18.88;62.93
77693;SHT31;66984;47.404;18.836;2023-07-28T04:17:15;18.88;63.02
77693;SHT31;66984;47.404;18.836;2023-07-28T04:18:18;18.90;62.96
77693;SHT31;66984;47.404;18.836;2023-07-28T04:19:21;18.85;62.78
77693;SHT31;66984;47.404;18.836;2023-07-28T04:20:23;18.85;62.89
77693;SHT31;66984;47.404;18.836;2023-07-28T04:21:26;18.88;62.97
77693;SHT31;66984;47.404;18.836;2023-07-28T04:22:29;18.90;62.79
77693;SHT31;66984;47.404;18.836;2023-07-28T04:23:32;18.91;62.77
77693;SHT31;66984;47.404;18.836;2023-07-28T04:24:35;18.90;62.47
77693;SHT31;66984;47.404;18.836;2023-07-28T04:25:38;18.91;62.39
77693;SHT31;66984;47.404;18.836;2023-07-28T04:26:41;18.90;62.42
77693;SHT31;66984;47.404;18.836;2023-07-28T04:27:45;18.91;62.25
77693;SHT31;66984;47.404;18.836;2023-07-28T04:28:48;18.94;62.17
77693;SHT31;66984;47.404;18.836;2023-07-28T04:29:51;18.97;62.13
77693;SHT31;66984;47.404;18.836;2023-07-28T04:30:53;18.95;62.42
77693;SHT31;66984;47.404;18.836;2023-07-28T04:31:56;18.98;62.30
77693;SHT31;66984;47.404;18.836;2023-07-28T04:32:59;19.00;62.20
77693;SHT31;66984;47.404;18.836;2023-07-28T04:34:02;19.01;62.22
77693;SHT31;66984;47.404;18.836;2023-07-28T04:35:07;19.07;62.58
77693;SHT31;66984;47.404;18.836;2023-07-28T04:36:10;19.08;62.72
77693;SHT31;66984;47.404;18.836;2023-07-28T04:37:13;19.08;62.52
77693;SHT31;66984;47.404;18.836;2023-07-28T04:38:16;19.10;62.35
77693;SHT31;66984;47.404;18.836;2023-07-28T04:39:20;19.11;62.20
77693;SHT31;66984;47.404;18.836;2023-07-28T04:40:23;19.12;62.16
77693;SHT31;66984;47.404;18.836;2023-07-28T04:41:26;19.08;62.24
77693;SHT31;66984;47.404;18.836;2023-07-28T04:42:29;19.07;62.05
77693;SHT31;66984;47.404;18.836;2023-07-28T04:43:31;19.05;62.27
77693;SHT31;66984;47.404;18.836;2023-07-28T04:44:34;19.07;62.28
77693;SHT31;66984;47.404;18.836;2023-07-28T04:45:37;19.05;62.66
77693;SHT31;66984;47.404;18.836;2023-07-28T04:46:40;19.05;62.86
77693;SHT31;66984;47.404;18.836;2023-07-28T04:47:43;19.08;62.47
77693;SHT31;66984;47.404;18.836;2023-07-28T04:48:46;19.08;61.92
77693;SHT31;66984;47.404;18.836;2023-07-28T04:49:49;19.04;61.90
77693;SHT31;66984;47.404;18.836;2023-07-28T04:50:52;19.02;62.21
77693;SHT31;66984;47.404;18.836;2023-07-28T04:51:54;19.05;62.43
77693;SHT31;66984;47.404;18.836;2023-07-28T04:52:58;19.10;62.32
77693;SHT31;66984;47.404;18.836;2023-07-28T04:54:01;19.10;62.20
77693;SHT31;66984;47.404;18.836;2023-07-28T04:55:04;19.05;62.19
77693;SHT31;66984;47.404;18.836;2023-07-28T04:56:07;19.07;62.18
77693;SHT31;66984;47.404;18.836;2023-07-28T04:57:10;19.05;62.29
77693;SHT31;66984;47.404;18.836;2023-07-28T04:58:16;19.08;62.35
77693;SHT31;66984;47.404;18.836;2023-07-28T04:59:19;19.12;62.41
77693;SHT31;66984;47.404;18.836;2023-07-28T05:00:22;19.11;62.71
77693;SHT31;66984;47.404;18.836;2023-07-28T05:01:25;19.16;62.21
77693;SHT31;66984;47.404;18.836;2023-07-28T05:02:28;19.16;61.91
77693;SHT31;66984;47.404;18.836;2023-07-28T05:03:31;19.18;61.76
77693;SHT31;66984;47.404;18.836;2023-07-28T05:04:34;19.21;61.84
77693;SHT31;66984;47.404;18.836;2023-07-28T05:05:43;19.22;61.80
77693;SHT31;66984;47.404;18.836;2023-07-28T05:06:47;19.21;61.88
77693;SHT31;66984;47.404;18.836;2023-07-28T05:07:50;19.22;61.86
77693;SHT31;66984;47.404;18.836;2023-07-28T05:08:52;19.25;61.94
77693;SHT31;66984;47.404;18.836;2023-07-28T05:09:55;19.23;62.00
77693;SHT31;66984;47.404;18.836;2023-07-28T05:10:58;19.26;62.12
77693;SHT31;66984;47.404;18.836;2023-07-28T05:12:01;19.26;62.24
77693;SHT31;66984;47.404;18.836;2023-07-28T05:13:04;19.26;62.59
77693;SHT31;66984;47.404;18.836;2023-07-28T05:14:07;19.25;62.35
77693;SHT31;66984;47.404;18.836;2023-07-28T05:15:14;19.25;62.38
77693;SHT31;66984;47.404;18.836;2023-07-28T05:16:17;19.26;62.73
77693;SHT31;66984;47.404;18.836;2023-07-28T05:17:20;19.28;63.23
77693;SHT31;66984;47.404;18.836;2023-07-28T05:18:23;19.31;63.16
77693;SHT31;66984;47.404;18.836;2023-07-28T05:19:26;19.32;62.96
77693;SHT31;66984;47.404;18.836;2023-07-28T05:20:29;19.32;62.64
77693;SHT31;66984;47.404;18.836;2023-07-28T05:21:32;19.35;62.51
77693;SHT31;66984;47.404;18.836;2023-07-28T05:22:35;19.35;62.76
77693;SHT31;66984;47.404;18.836;2023-07-28T05:23:38;19.38;62.75
77693;SHT31;66984;47.404;18.836;2023-07-28T05:24:41;19.39;62.77
77693;SHT31;66984;47.404;18.836;2023-07-28T05:25:44;19.38;62.66
77693;SHT31;66984;47.404;18.836;2023-07-28T05:26:47;19.43;62.89
77693;SHT31;66984;47.404;18.836;2023-07-28T05:27:50;19.41;62.46
77693;SHT31;66984;47.404;18.836;2023-07-28T05:28:53;19.48;62.44
77693;SHT31;66984;47.404;18.836;2023-07-28T05:29:55;19.50;62.26
77693;SHT31;66984;47.404;18.836;2023-07-28T05:31:04;19.52;62.75
77693;SHT31;66984;47.404;18.836;2023-07-28T05:32:08;19.52;62.65
77693;SHT31;66984;47.404;18.836;2023-07-28T05:33:10;19.56;62.62
77693;SHT31;66984;47.404;18.836;2023-07-28T05:34:14;19.59;62.55
77693;SHT31;66984;47.404;18.836;2023-07-28T05:35:16;19.65;62.55
77693;SHT31;66984;47.404;18.836;2023-07-28T05:36:19;19.63;62.52
77693;SHT31;66984;47.404;18.836;2023-07-28T05:37:22;19.67;63.20
77693;SHT31;66984;47.404;18.836;2023-07-28T05:38:25;19.70;62.96
77693;SHT31;66984;47.404;18.836;2023-07-28T05:39:28;19.70;62.81
77693;SHT31;66984;47.404;18.836;2023-07-28T05:40:31;19.76;62.96
77693;SHT31;66984;47.404;18.836;2023-07-28T05:41:34;19.77;62.90
77693;SHT31;66984;47.404;18.836;2023-07-28T05:42:37;19.79;62.56
77693;SHT31;66984;47.404;18.836;2023-07-28T05:43:40;19.76;62.08
77693;SHT31;66984;47.404;18.836;2023-07-28T05:44:43;19.76;62.29
77693;SHT31;66984;47.404;18.836;2023-07-28T05:45:46;19.79;62.62
77693;SHT31;66984;47.404;18.836;2023-07-28T05:46:49;19.79;62.60
77693;SHT31;66984;47.404;18.836;2023-07-28T05:47:52;19.77;61.69
77693;SHT31;66984;47.404;18.836;2023-07-28T05:48:55;19.79;61.71
77693;SHT31;66984;47.404;18.836;2023-07-28T05:49:58;19.77;61.30
77693;SHT31;66984;47.404;18.836;2023-07-28T05:51:05;19.79;61.70
77693;SHT31;66984;47.404;18.836;2023-07-28T05:52:08;19.84;61.45
77693;SHT31;66984;47.404;18.836;2023-07-28T05:53:11;19.87;61.38
77693;SHT31;66984;47.404;18.836;2023-07-28T05:54:14;19.89;61.73
77693;SHT31;66984;47.404;18.836;2023-07-28T05:55:17;19.93;61.80
77693;SHT31;66984;47.404;18.836;2023-07-28T05:56:20;19.94;61.65
77693;SHT31;66984;47.404;18.836;2023-07-28T05:57:23;19.97;61.48
77693;SHT31;66984;47.404;18.836;2023-07-28T05:58:27;19.97;61.92
77693;SHT31;66984;47.404;18.836;2023-07-28T05:59:30;20.04;61.21
77693;SHT31;66984;47.404;18.836;2023-07-28T06:00:33;20.06;61.05
77693;SHT31;66984;47.404;18.836;2023-07-28T06:01:36;20.10;61.35
77693;SHT31;66984;47.404;18.836;2023-07-28T06:02:39;20.14;61.73
77693;SHT31;66984;47.404;18.836;2023-07-28T06:03:42;20.11;61.56
77693;SHT31;66984;47.404;18.836;2023-07-28T06:04:46;20.17;61.15
77693;SHT31;66984;47.404;18.836;2023-07-28T06:05:49;20.22;60.66
77693;SHT31;66984;47.404;18.836;2023-07-28T06:06:53;20.24;60.62
77693;SHT31;66984;47.404;18.836;2023-07-28T06:07:56;20.27;60.72
77693;SHT31;66984;47.404;18.836;2023-07-28T06:08:59;20.29;60.78
77693;SHT31;66984;47.404;18.836;2023-07-28T06:10:02;20.32;60.51
77693;SHT31;66984;47.404;18.836;2023-07-28T06:11:06;20.35;60.45
77693;SHT31;66984;47.404;18.836;2023-07-28T06:12:08;20.38;60.52
77693;SHT31;66984;47.404;18.836;2023-07-28T06:13:11;20.39;60.45
77693;SHT31;66984;47.404;18.836;2023-07-28T06:14:14;20.44;59.86
77693;SHT31;66984;47.404;18.836;2023-07-28T06:15:17;20.42;59.68
77693;SHT31;66984;47.404;18.836;2023-07-28T06:16:20;20.44;60.30
77693;SHT31;66984;47.404;18.836;2023-07-28T06:17:23;20.47;60.26
77693;SHT31;66984;47.404;18.836;2023-07-28T06:18:26;20.49;59.85
77693;SHT31;66984;47.404;18.836;2023-07-28T06:19:29;20.52;60.03
77693;SHT31;66984;47.404;18.836;2023-07-28T06:20:32;20.56;59.41
77693;SHT31;66984;47.404;18.836;2023-07-28T06:21:34;20.61;59.56
77693;SHT31;66984;47.404;18.836;2023-07-28T06:22:37;20.64;60.74
77693;SHT31;66984;47.404;18.836;2023-07-28T06:23:41;20.65;59.24
77693;SHT31;66984;47.404;18.836;2023-07-28T06:24:43;20.68;59.26
77693;SHT31;66984;47.404;18.836;2023-07-28T06:25:46;20.72;59.66
77693;SHT31;66984;47.404;18.836;2023-07-28T06:26:49;20.78;59.85
77693;SHT31;66984;47.404;18.836;2023-07-28T06:27:53;20.78;60.05
77693;SHT31;66984;47.404;18.836;2023-07-28T06:28:56;20.83;60.48
77693;SHT31;66984;47.404;18.836;2023-07-28T06:29:59;20.86;60.56
77693;SHT31;66984;47.404;18.836;2023-07-28T06:31:01;20.86;60.77
77693;SHT31;66984;47.404;18.836;2023-07-28T06:32:05;20.92;60.52
77693;SHT31;66984;47.404;18.836;2023-07-28T06:33:08;20.92;59.59
77693;SHT31;66984;47.404;18.836;2023-07-28T06:34:11;20.96;59.75
77693;SHT31;66984;47.404;18.836;2023-07-28T06:35:14;20.99;59.95